createdAt,value
2017-05-01T00:01:23.919Z,9.83
2017-05-01T00:03:52.879Z,16.68
2017-05-01T00:06:21.837Z,10.27
2017-05-01T00:08:51.543Z,9.38
2017-05-01T00:11:21.250Z,9.35
2017-05-01T00:13:50.531Z,9.40
2017-05-01T00:16:19.513Z,7.78
2017-05-01T00:18:48.382Z,9.18
2017-05-01T00:21:17.401Z,7.87
2017-05-01T00:23:46.342Z,11.10
2017-05-01T00:26:15.672Z,12.60
2017-05-01T00:28:44.645Z,11.47
2017-05-01T00:31:13.597Z,9.88
2017-05-01T00:33:43.620Z,10.00
2017-05-01T00:36:13.336Z,9.92
2017-05-01T00:38:42.282Z,12.27
2017-05-01T00:41:11.462Z,16.53
2017-05-01T00:43:40.424Z,9.38
2017-05-01T00:46:09.690Z,8.37
2017-05-01T00:48:39.395Z,10.77
2017-05-01T00:51:08.414Z,14.63
2017-05-01T00:53:37.764Z,11.37
2017-05-01T00:56:06.729Z,12.12
2017-05-01T00:58:35.690Z,13.45
2017-05-01T01:01:05.069Z,10.25
2017-05-01T01:03:34.773Z,9.50
2017-05-01T01:06:04.769Z,11.85
2017-05-01T01:08:33.741Z,10.50
2017-05-01T01:11:22.851Z,11.65
2017-05-01T01:13:52.562Z,14.68
2017-05-01T01:16:22.603Z,8.90
2017-05-01T01:18:51.562Z,11.58
2017-05-01T01:21:20.551Z,8.78
2017-05-01T01:23:50.270Z,12.37
2017-05-01T01:26:19.960Z,9.70
2017-05-01T01:28:49.197Z,9.72
2017-05-01T01:31:18.160Z,14.03
2017-05-01T01:33:47.859Z,10.87
2017-05-01T01:36:17.573Z,12.30
2017-05-01T01:38:47.259Z,11.95
2017-05-01T01:41:16.549Z,11.18
2017-05-01T01:43:45.495Z,13.58
2017-05-01T01:46:14.454Z,13.12
2017-05-01T01:48:43.402Z,10.78
2017-05-01T01:51:12.374Z,10.20
2017-05-01T01:53:41.630Z,10.80
2017-05-01T01:56:10.565Z,12.48
2017-05-01T01:58:39.498Z,10.35
2017-05-01T02:01:08.798Z,12.20
2017-05-01T02:03:37.801Z,16.85
2017-05-01T02:06:06.795Z,11.63
2017-05-01T02:08:36.484Z,13.13
2017-05-01T02:11:05.440Z,9.22
2017-05-01T02:13:34.985Z,11.08
2017-05-01T02:16:03.943Z,10.27
2017-05-01T02:18:33.258Z,12.25
2017-05-01T02:21:02.206Z,9.63
2017-05-01T02:23:31.168Z,11.85
2017-05-01T02:26:00.902Z,12.03
2017-05-01T02:28:29.884Z,10.47
2017-05-01T02:30:59.195Z,10.38
2017-05-01T02:33:28.265Z,9.97
2017-05-01T02:35:57.975Z,11.15
2017-05-01T02:38:27.672Z,12.53
2017-05-01T02:40:57.364Z,12.25
2017-05-01T02:43:26.637Z,10.63
2017-05-01T02:45:55.584Z,7.82
2017-05-01T02:48:25.261Z,15.53
2017-05-01T02:50:54.474Z,13.20
2017-05-01T02:53:24.179Z,14.48
2017-05-01T02:55:54.362Z,15.03
2017-05-01T02:58:23.340Z,15.05
2017-05-01T03:00:52.297Z,13.02
2017-05-01T03:03:21.264Z,13.03
2017-05-01T03:05:50.967Z,14.97
2017-05-01T03:08:20.218Z,12.52
2017-05-01T03:10:49.163Z,13.35
2017-05-01T03:13:18.887Z,13.30
2017-05-01T03:15:48.599Z,12.43
2017-05-01T03:18:17.535Z,12.52
2017-05-01T03:20:46.791Z,13.22
2017-05-01T03:23:19.101Z,15.03
2017-05-01T03:25:48.747Z,11.75
2017-05-01T03:28:17.830Z,15.78
2017-05-01T03:30:46.785Z,15.67
2017-05-01T03:33:15.753Z,11.53
2017-05-01T03:35:44.691Z,16.83
2017-05-01T03:38:13.987Z,19.62
2017-05-01T03:40:43.012Z,12.77
2017-05-01T03:43:12.734Z,13.72
2017-05-01T03:45:42.086Z,18.70
2017-05-01T03:48:11.032Z,14.90
2017-05-01T03:50:40.002Z,14.65
2017-05-01T03:53:09.715Z,14.70
2017-05-01T03:55:38.661Z,13.43
2017-05-01T03:58:07.924Z,14.33
2017-05-01T04:00:36.886Z,17.65
2017-05-01T04:03:06.583Z,14.70
2017-05-01T04:05:36.328Z,14.25
2017-05-01T04:08:05.337Z,14.20
2017-05-01T04:10:34.649Z,14.25
2017-05-01T04:13:03.617Z,13.63
2017-05-01T04:15:32.598Z,15.85
2017-05-01T04:18:01.600Z,16.03
2017-05-01T04:20:30.582Z,12.18
2017-05-01T04:23:00.023Z,12.52
2017-05-01T04:25:28.988Z,12.98
2017-05-01T04:27:58.029Z,15.95
2017-05-01T04:30:28.104Z,15.23
2017-05-01T04:32:57.063Z,15.90
2017-05-01T04:35:26.036Z,19.08
2017-05-01T04:37:56.108Z,18.93
2017-05-01T04:40:25.063Z,24.20
2017-05-01T04:42:54.041Z,15.30
2017-05-01T04:45:23.764Z,14.35
2017-05-01T04:47:52.762Z,21.28
2017-05-01T04:50:22.083Z,18.23
2017-05-01T04:52:51.058Z,13.77
2017-05-01T04:55:20.017Z,12.38
2017-05-01T04:57:50.077Z,13.90
2017-05-01T05:00:19.039Z,13.98
2017-05-01T05:02:48.018Z,14.17
2017-05-01T05:05:16.991Z,16.47
2017-05-01T05:07:46.691Z,18.90
2017-05-01T05:10:15.938Z,19.72
2017-05-01T05:12:44.907Z,17.33
2017-05-01T05:15:13.862Z,13.93
2017-05-01T05:17:42.855Z,17.15
2017-05-01T05:20:11.841Z,13.73
2017-05-01T05:22:41.056Z,13.67
2017-05-01T05:25:10.753Z,13.60
2017-05-01T05:27:39.693Z,11.50
2017-05-01T05:30:08.686Z,11.25
2017-05-01T05:32:37.636Z,14.00
2017-05-01T05:35:07.718Z,14.17
2017-05-01T05:37:36.683Z,13.98
2017-05-01T05:40:05.654Z,15.60
2017-05-01T05:42:34.645Z,12.77
2017-05-01T05:45:03.609Z,16.50
2017-05-01T05:47:33.614Z,17.67
2017-05-01T05:50:02.612Z,17.85
2017-05-01T05:52:32.317Z,16.70
2017-05-01T05:55:01.302Z,16.10
2017-05-01T05:57:30.293Z,14.68
2017-05-01T05:59:59.568Z,15.77
2017-05-01T06:02:28.542Z,19.20
2017-05-01T06:04:57.515Z,14.15
2017-05-01T06:07:26.510Z,15.90
2017-05-01T06:09:55.472Z,14.78
2017-05-01T06:12:25.459Z,15.58
2017-05-01T06:14:54.455Z,15.87
2017-05-01T06:17:23.434Z,17.70
2017-05-01T06:19:52.406Z,15.27
2017-05-01T06:22:21.389Z,16.88
2017-05-01T06:24:50.737Z,17.05
2017-05-01T06:27:19.701Z,17.35
2017-05-01T06:29:48.650Z,19.77
2017-05-01T06:32:17.964Z,18.28
2017-05-01T06:34:46.939Z,14.12
2017-05-01T06:37:15.907Z,14.32
2017-05-01T06:39:45.279Z,22.27
2017-05-01T06:42:14.237Z,14.63
2017-05-01T06:44:43.213Z,14.50
2017-05-01T06:47:12.202Z,18.00
2017-05-01T06:49:41.182Z,15.32
2017-05-01T06:52:11.257Z,11.97
2017-05-01T06:54:40.220Z,15.30
2017-05-01T06:57:09.186Z,14.95
2017-05-01T06:59:38.910Z,11.98
2017-05-01T07:02:07.889Z,13.57
2017-05-01T07:04:37.230Z,14.77
2017-05-01T07:07:06.200Z,14.03
2017-05-01T07:09:35.159Z,18.08
2017-05-01T07:12:04.810Z,13.20
2017-05-01T07:14:33.832Z,10.28
2017-05-01T07:17:03.139Z,12.92
2017-05-01T07:19:32.117Z,12.38
2017-05-01T07:22:01.845Z,11.42
2017-05-01T07:24:31.580Z,11.50
2017-05-01T07:27:00.570Z,11.03
2017-05-01T07:29:29.903Z,10.87
2017-05-01T07:31:58.867Z,11.10
2017-05-01T07:34:27.821Z,9.83
2017-05-01T07:36:56.784Z,9.98
2017-05-01T07:39:25.746Z,11.78
2017-05-01T07:41:55.150Z,13.32
2017-05-01T07:44:24.101Z,6.67
2017-05-01T07:46:53.812Z,10.17
2017-05-01T07:49:23.530Z,8.85
2017-05-01T07:51:52.511Z,10.05
2017-05-01T07:54:22.501Z,8.68
2017-05-01T07:56:51.458Z,9.40
2017-05-01T07:59:20.407Z,10.00
2017-05-01T08:01:50.479Z,7.75
2017-05-01T08:04:19.465Z,9.55
2017-05-01T08:06:48.433Z,8.52
2017-05-01T08:09:17.401Z,9.78
2017-05-01T08:11:47.099Z,9.03
2017-05-01T08:14:17.105Z,11.73
2017-05-01T08:16:46.064Z,10.32
2017-05-01T08:19:15.031Z,8.85
2017-05-01T08:21:44.362Z,9.08
2017-05-01T08:24:13.327Z,8.90
2017-05-01T08:26:42.309Z,7.95
2017-05-01T08:29:11.289Z,7.58
2017-05-01T08:31:40.356Z,7.70
2017-05-01T08:34:10.376Z,8.83
2017-05-01T08:36:40.015Z,8.05
2017-05-01T08:39:09.009Z,9.37
2017-05-01T08:41:38.008Z,8.27
2017-05-01T08:44:06.976Z,6.50
2017-05-01T08:46:36.322Z,7.77
2017-05-01T08:49:05.288Z,7.82
2017-05-01T08:51:34.258Z,8.30
2017-05-01T08:54:03.263Z,7.33
2017-05-01T08:56:32.231Z,6.47
2017-05-01T08:59:01.649Z,9.36
2017-05-01T09:01:30.630Z,8.16
2017-05-01T09:03:59.610Z,7.04
2017-05-01T09:06:29.678Z,6.86
2017-05-01T09:08:58.653Z,6.38
2017-05-01T09:11:27.616Z,7.64
2017-05-01T09:13:56.600Z,10.72
2017-05-01T09:16:25.558Z,9.14
2017-05-01T09:18:54.844Z,9.28
2017-05-01T09:21:23.804Z,8.84
2017-05-01T09:23:52.763Z,9.24
2017-05-01T09:26:22.538Z,7.50
2017-05-01T09:28:51.498Z,9.34
2017-05-01T09:31:20.781Z,11.56
2017-05-01T09:33:49.745Z,9.16
2017-05-01T09:36:19.471Z,9.70
2017-05-01T09:38:48.814Z,9.78
2017-05-01T09:41:17.871Z,9.32
2017-05-01T09:43:46.841Z,12.24
2017-05-01T09:46:16.561Z,10.42
2017-05-01T09:48:45.530Z,8.20
2017-05-01T09:51:15.537Z,9.46
2017-05-01T09:53:44.514Z,10.34
2017-05-01T09:56:13.490Z,12.94
2017-05-01T09:58:42.817Z,9.06
2017-05-01T10:01:11.796Z,9.26
2017-05-01T10:03:40.787Z,7.78
2017-05-01T10:06:09.751Z,9.86
2017-05-01T10:08:38.727Z,11.10
2017-05-01T10:11:08.066Z,11.42
2017-05-01T10:13:37.039Z,11.66
2017-05-01T10:16:06.003Z,12.42
2017-05-01T10:18:35.313Z,10.64
2017-05-01T10:21:04.297Z,11.84
2017-05-01T10:23:33.289Z,12.70
2017-05-01T10:26:02.314Z,10.04
2017-05-01T10:28:31.293Z,13.12
2017-05-01T10:31:00.584Z,12.20
2017-05-01T10:33:29.534Z,10.66
2017-05-01T10:35:59.252Z,14.12
2017-05-01T10:38:28.540Z,12.24
2017-05-01T10:40:57.550Z,12.78
2017-05-01T10:43:26.519Z,9.46
2017-05-01T10:45:56.251Z,9.66
2017-05-01T10:48:25.212Z,9.28
2017-05-01T10:50:54.585Z,10.36
2017-05-01T10:53:23.540Z,8.90
2017-05-01T10:55:52.527Z,11.54
2017-05-01T10:58:21.503Z,10.46
2017-05-01T11:00:50.588Z,11.16
2017-05-01T11:03:20.677Z,9.32
2017-05-01T11:05:49.632Z,9.62
2017-05-01T11:08:18.731Z,9.18
2017-05-01T11:10:47.745Z,9.52
2017-05-01T11:13:16.728Z,10.80
2017-05-01T11:15:46.033Z,12.76
2017-05-01T11:18:14.980Z,16.84
2017-05-01T11:20:43.959Z,13.24
2017-05-01T11:23:12.961Z,14.66
2017-05-01T11:25:41.953Z,11.90
2017-05-01T11:28:11.272Z,15.26
2017-05-01T11:30:40.232Z,16.08
2017-05-01T11:33:09.224Z,11.36
2017-05-01T11:35:38.787Z,12.16
2017-05-01T11:38:07.763Z,14.32
2017-05-01T11:40:36.727Z,17.26
2017-05-01T11:43:05.715Z,15.44
2017-05-01T11:45:34.677Z,14.58
2017-05-01T11:48:04.681Z,16.78
2017-05-01T11:50:33.644Z,17.64
2017-05-01T11:53:02.671Z,16.50
2017-05-01T11:55:32.760Z,18.50
2017-05-01T11:58:01.674Z,17.90
2017-05-01T12:00:31.396Z,14.82
2017-05-01T12:03:01.091Z,18.56
2017-05-01T12:05:30.825Z,19.18
2017-05-01T12:08:00.146Z,17.20
2017-05-01T12:10:29.138Z,14.80
2017-05-01T12:12:58.112Z,14.52
2017-05-01T12:15:27.071Z,16.18
2017-05-01T12:17:56.077Z,14.74
2017-05-01T12:20:25.422Z,18.64
2017-05-01T12:22:54.395Z,15.80
2017-05-01T12:25:23.368Z,14.62
2017-05-01T12:27:52.728Z,16.52
2017-05-01T12:30:21.709Z,16.74
2017-05-01T12:32:50.696Z,19.28
2017-05-01T12:35:19.705Z,14.60
2017-05-01T12:37:48.632Z,18.70
2017-05-01T12:40:17.977Z,23.30
2017-05-01T12:42:46.931Z,15.02
2017-05-01T12:45:15.902Z,16.88
2017-05-01T12:47:44.965Z,15.16
2017-05-01T12:50:13.933Z,16.78
2017-05-01T12:52:43.236Z,16.20
2017-05-01T12:55:12.204Z,15.16
2017-05-01T12:57:41.180Z,14.96
2017-05-01T13:00:10.495Z,15.02
2017-05-01T13:02:39.461Z,14.62
2017-05-01T13:05:08.422Z,15.82
2017-05-01T13:07:37.417Z,13.54
2017-05-01T13:10:07.122Z,14.48
2017-05-01T13:12:36.108Z,19.34
2017-05-01T13:15:05.092Z,15.12
2017-05-01T13:17:34.490Z,20.40
2017-05-01T13:20:03.471Z,18.62
2017-05-01T13:22:32.441Z,13.78
2017-05-01T13:25:01.460Z,11.10
2017-05-01T13:27:30.432Z,12.40
2017-05-01T13:29:59.761Z,13.38
2017-05-01T13:32:28.772Z,23.98
2017-05-01T13:34:58.517Z,14.08
2017-05-01T13:37:27.787Z,14.94
2017-05-01T13:39:56.775Z,10.96
2017-05-01T13:42:26.487Z,14.28
2017-05-01T13:44:55.819Z,11.02
2017-05-01T13:47:24.876Z,11.02
2017-05-01T13:49:53.856Z,10.60
2017-05-01T13:52:23.617Z,13.90
2017-05-01T13:54:52.590Z,18.26
2017-05-01T13:57:21.927Z,15.16
2017-05-01T13:59:51.037Z,12.46
2017-05-01T14:02:20.009Z,15.78
2017-05-01T14:04:49.089Z,14.60
2017-05-01T14:07:18.845Z,12.44
2017-05-01T14:09:48.912Z,16.26
2017-05-01T14:12:17.878Z,12.62
2017-05-01T14:14:46.852Z,14.10
2017-05-01T14:17:16.925Z,13.80
2017-05-01T14:19:45.902Z,12.68
2017-05-01T14:22:14.887Z,19.94
2017-05-01T14:24:44.250Z,10.80
2017-05-01T14:27:13.955Z,15.18
2017-05-01T14:29:42.946Z,14.56
2017-05-01T14:32:12.693Z,16.42
2017-05-01T14:34:41.666Z,14.38
2017-05-01T14:37:11.006Z,14.46
2017-05-01T14:39:39.969Z,11.98
2017-05-01T14:42:08.935Z,11.54
2017-05-01T14:44:37.956Z,10.98
2017-05-01T14:47:06.921Z,10.07
2017-05-01T14:49:36.266Z,11.28
2017-05-01T14:52:05.188Z,12.93
2017-05-01T14:54:34.166Z,10.10
2017-05-01T14:57:03.453Z,13.13
2017-05-01T14:59:32.426Z,54.83
2017-05-01T15:02:01.379Z,7.38
2017-05-01T15:04:30.380Z,46.17
2017-05-01T15:06:59.357Z,25.20
2017-05-01T15:09:28.724Z,13.60
2017-05-01T15:11:57.732Z,2.57
2017-05-01T15:14:27.514Z,12.42
2017-05-01T15:16:56.781Z,1.93
2017-05-01T15:19:25.743Z,1.82
2017-05-01T15:21:54.736Z,2.45
2017-05-01T15:24:23.724Z,0.97
2017-05-01T15:26:53.442Z,1.12
2017-05-01T15:29:22.790Z,0.82
2017-05-01T15:31:51.762Z,0.83
2017-05-01T15:34:20.722Z,1.62
2017-05-01T15:36:49.717Z,3.02
2017-05-01T15:39:18.663Z,0.98
2017-05-01T15:41:47.949Z,1.57
2017-05-01T15:44:16.925Z,1.10
2017-05-01T15:46:45.902Z,1.10
2017-05-01T15:49:14.893Z,0.98
2017-05-01T15:51:43.843Z,1.48
2017-05-01T15:54:13.954Z,0.70
2017-05-01T15:56:43.695Z,0.80
2017-05-01T15:59:12.814Z,0.80
2017-05-01T16:01:42.144Z,0.83
2017-05-01T16:04:11.130Z,0.68
2017-05-01T16:06:40.115Z,0.85
2017-05-01T16:09:09.100Z,0.93
2017-05-01T16:11:38.092Z,1.40
2017-05-01T16:14:07.413Z,1.13
2017-05-01T16:16:36.399Z,2.90
2017-05-01T16:19:05.384Z,2.20
2017-05-01T16:21:34.407Z,0.97
2017-05-01T16:24:04.122Z,2.12
2017-05-01T16:26:34.226Z,1.02
2017-05-01T16:29:03.966Z,2.05
2017-05-01T16:31:32.973Z,6.23
2017-05-01T16:34:01.985Z,1.17
2017-05-01T16:36:30.955Z,1.87
2017-05-01T16:39:00.277Z,1.80
2017-05-01T16:41:29.275Z,1.50
2017-05-01T16:43:58.293Z,2.35
2017-05-01T16:46:28.075Z,5.30
2017-05-01T16:48:57.083Z,1.73
2017-05-01T16:51:27.173Z,1.17
2017-05-01T16:53:56.164Z,2.27
2017-05-01T16:56:25.158Z,2.22
2017-05-01T16:58:54.505Z,2.10
2017-05-01T17:01:23.502Z,1.68
2017-05-01T17:03:52.503Z,1.60
2017-05-01T17:06:21.858Z,3.15
2017-05-01T17:08:50.859Z,4.30
2017-05-01T17:11:20.677Z,7.70
2017-05-01T17:13:49.751Z,3.52
2017-05-01T17:16:18.758Z,2.07
2017-05-01T17:18:48.872Z,5.33
2017-05-01T17:21:18.631Z,3.20
2017-05-01T17:23:47.628Z,1.37
2017-05-01T17:26:16.984Z,1.77
2017-05-01T17:28:45.989Z,1.57
2017-05-01T17:31:14.976Z,1.32
2017-05-01T17:33:44.342Z,1.38
2017-05-01T17:36:13.352Z,1.30
2017-05-01T17:38:43.108Z,1.13
2017-05-01T17:41:12.447Z,1.45
2017-05-01T17:43:41.457Z,1.22
2017-05-01T17:46:11.203Z,1.00
2017-05-01T17:48:40.615Z,1.53
2017-05-01T17:51:09.642Z,4.30
2017-05-01T17:53:38.643Z,1.88
2017-05-01T17:56:08.797Z,3.82
2017-05-01T17:58:37.823Z,2.13
2017-05-01T18:01:06.846Z,2.42
2017-05-01T18:03:36.643Z,2.37
2017-05-01T18:06:05.665Z,4.15
2017-05-01T18:08:35.127Z,2.10
2017-05-01T18:11:04.145Z,2.08
2017-05-01T18:13:33.904Z,2.65
2017-05-01T18:16:02.937Z,1.85
2017-05-01T18:18:32.653Z,3.17
2017-05-01T18:21:02.754Z,1.68
2017-05-01T18:23:31.746Z,2.68
2017-05-01T18:26:00.820Z,1.78
2017-05-01T18:28:30.241Z,1.47
2017-05-01T18:30:59.243Z,1.78
2017-05-01T18:33:28.950Z,2.23
2017-05-01T18:35:58.035Z,2.78
2017-05-01T18:38:27.038Z,1.62
2017-05-01T18:40:57.146Z,1.70
2017-05-01T18:43:26.273Z,1.68
2017-05-01T18:45:55.280Z,1.88
2017-05-01T18:48:24.263Z,6.40
2017-05-01T18:50:53.388Z,2.60
2017-05-01T18:53:22.753Z,2.00
2017-05-01T18:55:51.801Z,2.27
2017-05-01T18:58:20.866Z,6.07
2017-05-01T19:00:49.912Z,1.12
2017-05-01T19:03:19.635Z,1.28
2017-05-01T19:05:49.015Z,1.30
2017-05-01T19:08:18.782Z,1.45
2017-05-01T19:10:47.781Z,1.48
2017-05-01T19:13:17.202Z,1.30
2017-05-01T19:15:46.222Z,1.32
2017-05-01T19:18:15.222Z,6.40
2017-05-01T19:20:44.473Z,2.67
2017-05-01T19:23:13.492Z,2.22
2017-05-01T19:25:43.583Z,3.85
2017-05-01T19:28:12.811Z,3.62
2017-05-01T19:30:42.575Z,2.97
2017-05-01T19:33:11.864Z,1.73
2017-05-01T19:35:40.860Z,2.20
2017-05-01T19:38:09.857Z,2.03
2017-05-01T19:40:38.851Z,1.78
2017-05-01T19:43:07.845Z,1.62
2017-05-01T19:45:37.279Z,1.80
2017-05-01T19:48:07.011Z,1.77
2017-05-01T19:50:36.036Z,1.40
2017-05-01T19:53:05.031Z,2.57
2017-05-01T19:55:35.223Z,2.15
2017-05-01T19:58:04.610Z,2.08
2017-05-01T20:00:33.651Z,2.68
2017-05-01T20:03:02.664Z,3.03
2017-05-01T20:05:32.423Z,2.40
2017-05-01T20:08:01.409Z,2.93
2017-05-01T20:10:30.809Z,1.78
2017-05-01T20:12:59.832Z,1.90
2017-05-01T20:15:28.835Z,2.15
2017-05-01T20:17:58.149Z,1.57
2017-05-01T20:20:27.915Z,1.98
2017-05-01T20:22:56.904Z,1.73
2017-05-01T20:25:26.243Z,2.02
2017-05-01T20:27:55.428Z,1.70
2017-05-01T20:30:24.391Z,2.13
2017-05-01T20:32:53.363Z,1.80
2017-05-01T20:35:22.345Z,1.47
2017-05-01T20:37:51.620Z,2.42
2017-05-01T20:40:21.333Z,1.88
2017-05-01T20:42:51.422Z,1.80
2017-05-01T20:45:20.385Z,1.65
2017-05-01T20:47:49.413Z,1.40
2017-05-01T20:50:19.514Z,1.47
2017-05-01T20:52:48.468Z,1.53
2017-05-01T20:55:17.457Z,1.35
2017-05-01T20:57:46.793Z,1.15
2017-05-01T21:00:15.778Z,1.25
2017-05-01T21:02:44.748Z,1.88
2017-05-01T21:05:14.076Z,1.17
2017-05-01T21:07:43.149Z,1.30
2017-05-01T21:10:12.169Z,1.05
2017-05-01T21:12:41.419Z,1.35
2017-05-01T21:15:10.373Z,1.62
2017-05-01T21:17:39.330Z,1.35
2017-05-01T21:20:08.629Z,1.73
2017-05-01T21:22:37.609Z,1.40
2017-05-01T21:25:06.619Z,1.62
2017-05-01T21:27:35.924Z,1.55
2017-05-01T21:30:04.873Z,1.47
2017-05-01T21:32:33.852Z,1.32
2017-05-01T21:35:02.834Z,1.17
2017-05-01T21:37:31.836Z,1.28
2017-05-01T21:40:01.179Z,1.12
2017-05-01T21:42:30.156Z,2.90
2017-05-01T21:44:59.126Z,1.20
2017-05-01T21:47:28.090Z,1.17
2017-05-01T21:49:57.775Z,1.30
2017-05-01T21:52:27.039Z,1.15
2017-05-01T21:54:55.993Z,1.20
2017-05-01T21:57:24.971Z,1.67
2017-05-01T21:59:54.688Z,1.40
2017-05-01T22:02:23.568Z,1.58
2017-05-01T22:04:52.909Z,1.08
2017-05-01T22:07:21.861Z,0.98
2017-05-01T22:09:51.653Z,1.53
2017-05-01T22:12:20.606Z,1.45
2017-05-01T22:14:49.544Z,1.13
2017-05-01T22:17:19.544Z,1.62
2017-05-01T22:19:48.490Z,1.23
2017-05-01T22:22:17.449Z,1.40
2017-05-01T22:24:47.214Z,1.30
2017-05-01T22:27:16.166Z,2.60
2017-05-01T22:29:45.520Z,3.40
2017-05-01T22:32:14.562Z,1.62
2017-05-01T22:34:43.510Z,1.63
2017-05-01T22:37:12.485Z,1.45
2017-05-01T22:39:41.457Z,2.97
2017-05-01T22:42:10.865Z,1.75
2017-05-01T22:44:39.791Z,1.60
2017-05-01T22:47:08.754Z,1.40
2017-05-01T22:49:37.731Z,1.90
2017-05-01T22:52:06.719Z,1.78
2017-05-01T22:54:36.034Z,1.38
2017-05-01T22:57:05.157Z,1.45
2017-05-01T22:59:34.917Z,2.00
2017-05-01T23:02:03.894Z,2.67
2017-05-01T23:04:32.856Z,1.40
2017-05-01T23:07:02.841Z,1.50
2017-05-01T23:09:31.750Z,0.95
2017-05-01T23:12:00.730Z,1.33
2017-05-01T23:14:29.711Z,1.00
2017-05-01T23:16:58.657Z,1.23
2017-05-01T23:19:27.979Z,0.95
2017-05-01T23:21:56.864Z,1.20
2017-05-01T23:24:25.849Z,1.00
2017-05-01T23:26:54.825Z,1.10
2017-05-01T23:29:23.792Z,0.90
2017-05-01T23:31:53.836Z,0.83
2017-05-01T23:34:22.769Z,0.80
2017-05-01T23:36:51.727Z,0.98
2017-05-01T23:39:21.076Z,0.80
2017-05-01T23:41:50.758Z,0.90
2017-05-01T23:44:19.702Z,0.70
2017-05-01T23:46:48.679Z,0.90
2017-05-01T23:49:18.380Z,0.70
2017-05-01T23:51:48.350Z,0.75
2017-05-01T23:54:17.297Z,0.97
2017-05-01T23:56:46.241Z,1.03
2017-05-01T23:59:15.196Z,0.80
